Time;durP1;ratioP1;P1;durP2;ratioP2;P2;SDS_P1;SDS_P2;PMS_P1;PMS_P2;Temp;Humidity;BMP_temperature;BMP_pressure;BME280_temperature;BME280_humidity;BME280_pressure;Samples;Min_cycle;Max_cycle;Signal;HPM_P1;HPM_P2
2021/12/06 00:00:22;;;;;;;11.23;8.57;;;5.60;99.90;;;;;;4933346;29;20187;-76
2021/12/06 00:02:49;;;;;;;12.17;9.63;;;5.60;99.90;;;;;;4926002;29;20190;-76
2021/12/06 00:05:16;;;;;;;13.30;10.13;;;5.50;99.90;;;;;;4934201;29;20192;-77
2021/12/06 00:07:43;;;;;;;12.67;9.60;;;5.40;99.90;;;;;;4931744;29;20205;-77
2021/12/06 00:10:10;;;;;;;13.10;9.57;;;5.40;99.90;;;;;;4933183;29;20573;-76
2021/12/06 00:12:36;;;;;;;11.97;9.33;;;5.40;99.90;;;;;;4920573;29;20186;-76
2021/12/06 00:15:04;;;;;;;13.17;9.67;;;5.40;99.90;;;;;;4921957;29;20729;-76
2021/12/06 00:17:30;;;;;;;11.67;8.93;;;5.30;99.90;;;;;;4932628;29;20670;-76
2021/12/06 00:19:57;;;;;;;12.97;10.20;;;5.40;99.90;;;;;;4935735;29;20232;-76
2021/12/06 00:22:23;;;;;;;14.10;10.03;;;5.40;99.90;;;;;;4933397;29;20664;-77
2021/12/06 00:24:50;;;;;;;11.67;8.57;;;5.40;99.90;;;;;;4940448;29;20604;-77
2021/12/06 00:27:16;;;;;;;14.93;10.97;;;5.40;99.90;;;;;;4930397;29;20360;-77
2021/12/06 00:29:42;;;;;;;12.37;9.73;;;5.30;99.90;;;;;;4932922;29;20209;-76
2021/12/06 00:32:08;;;;;;;14.00;10.17;;;5.30;99.90;;;;;;4916505;29;20288;-76
2021/12/06 00:34:36;;;;;;;13.33;9.83;;;5.30;99.90;;;;;;4942717;29;20681;-76
2021/12/06 00:37:17;;;;;;;14.10;10.60;;;5.20;99.90;;;;;;4934010;29;20558;-76
2021/12/06 00:39:53;;;;;;;13.07;9.67;;;5.20;99.90;;;;;;4931958;29;20194;-77
2021/12/06 00:42:22;;;;;;;13.80;10.03;;;5.20;99.90;;;;;;4932750;29;20189;-77
2021/12/06 00:44:47;;;;;;;12.87;9.90;;;5.10;99.90;;;;;;4947239;29;20189;-77
2021/12/06 00:47:14;;;;;;;13.03;9.47;;;5.20;99.90;;;;;;4940640;28;20228;-76
2021/12/06 00:49:40;;;;;;;14.00;9.67;;;5.20;99.90;;;;;;4937434;29;20304;-77
2021/12/06 00:52:08;;;;;;;14.63;10.90;;;5.10;99.90;;;;;;4935320;29;20329;-76
2021/12/06 00:54:35;;;;;;;14.47;10.47;;;5.20;99.90;;;;;;4920813;29;20564;-77
2021/12/06 00:57:08;;;;;;;12.10;9.20;;;5.10;99.90;;;;;;4930546;29;20297;-76
2021/12/06 00:59:35;;;;;;;12.13;8.97;;;5.10;99.90;;;;;;4939412;29;20193;-76
2021/12/06 01:02:02;;;;;;;12.03;10.13;;;5.10;99.90;;;;;;4913436;29;20299;-76
2021/12/06 01:04:32;;;;;;;13.27;10.63;;;5.20;99.90;;;;;;4931085;29;20186;-77
2021/12/06 01:06:58;;;;;;;15.20;9.90;;;5.20;99.90;;;;;;4915313;29;20221;-76
2021/12/06 01:09:24;;;;;;;13.20;9.97;;;5.20;99.90;;;;;;4915376;29;20213;-76
2021/12/06 01:11:50;;;;;;;13.80;10.20;;;5.20;99.90;;;;;;4931474;29;20178;-77
2021/12/06 01:14:18;;;;;;;11.77;9.37;;;5.20;99.90;;;;;;4930253;29;20178;-76
2021/12/06 01:16:44;;;;;;;14.97;10.13;;;5.20;99.90;;;;;;4951702;28;20681;-76
2021/12/06 01:19:10;;;;;;;14.23;9.97;;;5.30;99.90;;;;;;4917197;29;20186;-76
2021/12/06 01:21:47;;;;;;;15.03;11.03;;;5.30;99.90;;;;;;4930839;29;20568;-77
2021/12/06 01:24:16;;;;;;;15.60;11.73;;;5.30;99.90;;;;;;4933211;29;20209;-77
2021/12/06 01:27:08;;;;;;;18.17;13.03;;;5.20;99.90;;;;;;4919088;29;20445;-76
2021/12/06 01:30:03;;;;;;;16.37;12.23;;;5.20;99.90;;;;;;4916183;29;20705;-76
2021/12/06 01:40:30;;;;;;;12.40;10.00;;;5.30;99.90;;;;;;4908066;29;20182;-77
2021/12/06 01:42:56;;;;;;;11.67;8.77;;;5.30;99.90;;;;;;4934109;29;20192;-77
2021/12/06 01:45:22;;;;;;;12.40;8.50;;;5.30;99.90;;;;;;4912841;29;20190;-77
2021/12/06 01:47:48;;;;;;;12.77;9.97;;;5.30;99.90;;;;;;4914484;29;20213;-77
2021/12/06 01:50:21;;;;;;;11.50;8.80;;;5.30;99.90;;;;;;4923277;29;20290;-77
2021/12/06 01:52:53;;;;;;;11.43;9.33;;;5.30;99.90;;;;;;4938038;29;20263;-77
2021/12/06 01:55:25;;;;;;;12.17;9.33;;;5.30;99.90;;;;;;4921808;29;20186;-76
2021/12/06 01:57:53;;;;;;;12.13;9.17;;;5.30;99.90;;;;;;4946073;28;20714;-76
2021/12/06 02:00:31;;;;;;;12.37;9.03;;;5.20;99.90;;;;;;4938856;29;20241;-77
2021/12/06 02:03:03;;;;;;;16.70;10.83;;;5.20;99.90;;;;;;4944751;29;20661;-77
2021/12/06 02:05:37;;;;;;;11.43;9.97;;;5.20;99.90;;;;;;4916577;29;20194;-77
2021/12/06 02:08:05;;;;;;;14.13;10.63;;;5.20;99.90;;;;;;4928047;29;20228;-77
2021/12/06 02:10:32;;;;;;;14.10;10.27;;;5.20;99.90;;;;;;4921035;29;20225;-77
2021/12/06 02:12:58;;;;;;;13.50;9.87;;;5.10;99.90;;;;;;4947087;28;20278;-77
2021/12/06 02:15:39;;;;;;;13.60;9.97;;;5.10;99.90;;;;;;4914780;29;20349;-77
2021/12/06 02:18:15;;;;;;;14.30;9.03;;;5.10;99.90;;;;;;4912247;29;20218;-77
2021/12/06 02:20:50;;;;;;;13.10;9.73;;;5.10;99.90;;;;;;4938909;29;20214;-77
2021/12/06 02:23:17;;;;;;;12.50;9.83;;;5.10;99.90;;;;;;4897592;29;20272;-77
2021/12/06 02:25:43;;;;;;;15.30;11.40;;;5.10;99.90;;;;;;4899217;29;20846;-77
2021/12/06 02:28:09;;;;;;;12.13;9.57;;;5.00;99.90;;;;;;4918239;29;20717;-77
2021/12/06 02:30:35;;;;;;;14.90;10.77;;;4.90;99.90;;;;;;4918163;29;20222;-77
2021/12/06 02:33:01;;;;;;;17.03;11.17;;;4.90;99.90;;;;;;4929226;29;20210;-77
2021/12/06 02:35:30;;;;;;;16.10;11.57;;;4.90;99.90;;;;;;4940988;29;20196;-77
2021/12/06 02:38:02;;;;;;;14.63;11.13;;;4.90;99.90;;;;;;4921104;29;20252;-77
2021/12/06 02:40:31;;;;;;;12.00;10.40;;;4.80;99.90;;;;;;4931007;29;20190;-77
2021/12/06 02:42:59;;;;;;;12.00;10.30;;;4.80;99.90;;;;;;4943818;29;20194;-77
2021/12/06 02:45:26;;;;;;;13.90;11.33;;;4.70;99.90;;;;;;4935757;29;20198;-77
2021/12/06 02:47:58;;;;;;;14.50;10.67;;;4.70;99.90;;;;;;4931601;29;20220;-77
2021/12/06 02:50:35;;;;;;;13.23;10.97;;;4.70;99.90;;;;;;4917923;29;20604;-77
2021/12/06 02:53:02;;;;;;;15.87;11.60;;;4.60;99.90;;;;;;4939496;29;20663;-77
2021/12/06 02:57:58;;;;;;;13.47;11.17;;;4.70;99.90;;;;;;4933222;28;20322;-77
2021/12/06 03:00:25;;;;;;;16.50;11.70;;;4.70;99.90;;;;;;4915908;29;20194;-76
2021/12/06 03:02:51;;;;;;;14.53;10.73;;;4.70;99.90;;;;;;4922153;29;20182;-77
2021/12/06 03:05:18;;;;;;;14.20;10.90;;;4.60;99.90;;;;;;4941891;29;20180;-76
2021/12/06 03:07:47;;;;;;;12.77;10.53;;;4.70;99.90;;;;;;4927743;29;20216;-76
2021/12/06 03:10:13;;;;;;;11.97;9.63;;;4.60;99.90;;;;;;4904073;29;20209;-76
2021/12/06 03:12:39;;;;;;;10.97;8.70;;;4.60;99.90;;;;;;4938690;29;20261;-77
2021/12/06 03:15:06;;;;;;;11.73;9.47;;;4.50;99.90;;;;;;4932446;29;20184;-77
2021/12/06 03:17:33;;;;;;;9.90;8.70;;;4.40;99.90;;;;;;4909214;29;20318;-76
2021/12/06 03:20:00;;;;;;;12.23;9.20;;;4.50;99.90;;;;;;4920229;29;20632;-76
2021/12/06 03:22:30;;;;;;;11.63;9.17;;;4.50;99.90;;;;;;4929629;29;20190;-76
2021/12/06 03:24:56;;;;;;;14.20;10.40;;;4.40;99.90;;;;;;4921754;29;20483;-77
2021/12/06 03:27:22;;;;;;;12.60;10.47;;;4.40;99.90;;;;;;4921363;29;20222;-76
2021/12/06 03:29:51;;;;;;;11.83;9.40;;;4.40;99.90;;;;;;4925224;29;20210;-76
2021/12/06 03:32:19;;;;;;;11.73;8.97;;;4.40;99.90;;;;;;4928257;29;20182;-76
2021/12/06 03:34:45;;;;;;;13.63;10.33;;;4.50;99.90;;;;;;4941717;29;20677;-77
2021/12/06 03:37:12;;;;;;;11.60;9.53;;;4.50;99.90;;;;;;4926869;29;20286;-76
2021/12/06 03:39:43;;;;;;;10.70;9.30;;;4.50;99.90;;;;;;4919655;29;20248;-76
2021/12/06 03:42:13;;;;;;;12.67;9.90;;;4.50;99.90;;;;;;4914946;29;20193;-77
2021/12/06 03:44:40;;;;;;;15.37;10.60;;;4.50;99.90;;;;;;4918579;29;20205;-77
2021/12/06 03:47:36;;;;;;;12.57;10.10;;;4.50;99.90;;;;;;4902046;29;20258;-76
2021/12/06 03:50:06;;;;;;;13.80;9.90;;;4.50;99.90;;;;;;4920530;29;20285;-77
2021/12/06 03:52:32;;;;;;;14.47;11.23;;;4.50;99.90;;;;;;4936288;29;20174;-77
2021/12/06 03:54:59;;;;;;;13.73;11.03;;;4.40;99.90;;;;;;4944831;29;20232;-77
2021/12/06 03:57:25;;;;;;;13.00;10.90;;;4.40;99.90;;;;;;4923369;29;20695;-77
2021/12/06 03:59:52;;;;;;;13.03;10.40;;;4.40;99.90;;;;;;4933709;29;20182;-76
2021/12/06 04:02:21;;;;;;;14.47;11.03;;;4.40;99.90;;;;;;4942812;29;20564;-77
2021/12/06 04:04:47;;;;;;;12.00;9.80;;;4.30;99.90;;;;;;4919068;29;20333;-76
2021/12/06 04:07:14;;;;;;;14.03;10.13;;;4.40;99.90;;;;;;4916351;29;20283;-77
2021/12/06 04:09:42;;;;;;;14.03;10.60;;;4.30;99.90;;;;;;4921902;29;20209;-76
2021/12/06 04:12:10;;;;;;;14.20;10.73;;;4.20;99.90;;;;;;4928301;29;20185;-76
2021/12/06 04:14:37;;;;;;;13.90;10.10;;;4.10;99.90;;;;;;4915913;29;20179;-76
2021/12/06 04:17:04;;;;;;;11.10;9.83;;;4.00;99.90;;;;;;4897423;29;20198;-76
2021/12/06 04:19:31;;;;;;;9.77;7.93;;;4.00;99.90;;;;;;4909225;29;20658;-76
2021/12/06 04:21:58;;;;;;;11.73;8.60;;;4.00;99.90;;;;;;4921969;29;20304;-77
2021/12/06 04:24:24;;;;;;;12.53;8.43;;;3.90;99.90;;;;;;4939434;29;20193;-76
2021/12/06 04:26:50;;;;;;;13.13;9.70;;;4.00;99.90;;;;;;4944783;29;20200;-77
2021/12/06 04:29:17;;;;;;;11.50;9.37;;;4.00;99.90;;;;;;4934810;29;20261;-78
2021/12/06 04:31:53;;;;;;;12.63;9.13;;;4.10;99.90;;;;;;4934476;29;20186;-78
2021/12/06 04:34:21;;;;;;;13.27;10.23;;;4.10;99.90;;;;;;4917474;29;20260;-77
2021/12/06 04:36:48;;;;;;;12.73;8.27;;;4.10;99.90;;;;;;4913692;29;20190;-77
2021/12/06 04:39:20;;;;;;;15.83;9.87;;;4.20;99.90;;;;;;4934775;29;20194;-76
2021/12/06 04:41:48;;;;;;;12.20;9.63;;;4.10;99.90;;;;;;4947031;29;20253;-77
2021/12/06 04:44:16;;;;;;;12.87;9.57;;;4.10;99.90;;;;;;4942540;29;20185;-77
2021/12/06 04:46:42;;;;;;;12.87;8.97;;;4.10;99.90;;;;;;4920726;29;20198;-78
2021/12/06 04:49:08;;;;;;;11.93;9.77;;;4.10;99.90;;;;;;4935643;29;20217;-77
2021/12/06 04:51:36;;;;;;;12.07;9.87;;;4.10;99.90;;;;;;4919497;29;20220;-78
2021/12/06 04:54:03;;;;;;;12.90;9.37;;;4.10;99.90;;;;;;4917084;29;20225;-77
2021/12/06 04:56:39;;;;;;;12.03;8.80;;;4.00;99.90;;;;;;4941545;29;20656;-77
2021/12/06 04:59:24;;;;;;;12.00;9.17;;;4.10;99.90;;;;;;4935737;29;20744;-77
2021/12/06 05:01:56;;;;;;;14.10;10.40;;;4.00;99.90;;;;;;4899224;29;20208;-77
2021/12/06 05:04:28;;;;;;;9.70;7.93;;;4.00;99.90;;;;;;4918663;29;20236;-77
2021/12/06 05:06:59;;;;;;;14.20;10.23;;;4.10;99.90;;;;;;4933254;29;20192;-77
2021/12/06 05:09:34;;;;;;;12.03;10.03;;;4.00;99.90;;;;;;4936979;29;20695;-78
2021/12/06 05:12:01;;;;;;;15.30;10.70;;;4.00;99.90;;;;;;4916441;29;20188;-78
2021/12/06 05:14:27;;;;;;;13.77;10.53;;;4.00;99.90;;;;;;4938001;29;20185;-78
2021/12/06 05:16:55;;;;;;;14.60;11.23;;;4.00;99.90;;;;;;4917267;29;20190;-78
2021/12/06 05:19:22;;;;;;;13.33;9.33;;;4.00;99.90;;;;;;4931906;29;20210;-78
2021/12/06 05:21:48;;;;;;;13.73;9.63;;;4.00;99.90;;;;;;4932010;29;20599;-78
2021/12/06 05:24:16;;;;;;;13.67;10.03;;;4.00;99.90;;;;;;4932250;29;20273;-78
2021/12/06 05:26:42;;;;;;;10.73;8.77;;;4.00;99.90;;;;;;4931269;29;20190;-78
2021/12/06 05:29:13;;;;;;;12.53;9.70;;;3.90;99.90;;;;;;4931280;29;20657;-78
2021/12/06 05:31:41;;;;;;;13.87;10.43;;;3.90;99.90;;;;;;4933385;29;20200;-78
2021/12/06 05:34:14;;;;;;;11.67;8.63;;;3.90;99.90;;;;;;4928166;29;20189;-78
2021/12/06 05:36:41;;;;;;;15.67;10.33;;;3.90;99.90;;;;;;4944915;29;20211;-78
2021/12/06 05:39:07;;;;;;;15.87;11.60;;;3.80;99.90;;;;;;4933344;29;20284;-78
2021/12/06 05:41:34;;;;;;;12.43;9.60;;;3.90;99.90;;;;;;4933232;29;20186;-77
2021/12/06 05:44:00;;;;;;;14.90;10.57;;;3.90;99.90;;;;;;4943252;29;20631;-77
2021/12/06 05:46:27;;;;;;;14.13;9.53;;;3.90;99.90;;;;;;4915926;29;20194;-78
2021/12/06 05:48:52;;;;;;;15.63;11.43;;;3.90;99.90;;;;;;4916392;29;20580;-78
2021/12/06 05:51:18;;;;;;;15.27;10.70;;;3.90;99.90;;;;;;4932851;29;20193;-77
2021/12/06 05:53:44;;;;;;;13.27;10.33;;;3.90;99.90;;;;;;4937373;29;20192;-77
2021/12/06 05:56:10;;;;;;;14.40;10.30;;;4.00;99.90;;;;;;4937160;29;20192;-77
2021/12/06 05:58:36;;;;;;;15.50;10.83;;;3.90;99.90;;;;;;4923416;29;20216;-77
2021/12/06 06:01:04;;;;;;;14.00;10.20;;;4.00;99.90;;;;;;4920358;29;20194;-77
2021/12/06 06:03:29;;;;;;;13.47;10.13;;;4.00;99.90;;;;;;4929263;29;20296;-77
2021/12/06 06:05:56;;;;;;;14.27;10.70;;;4.00;99.90;;;;;;4945500;29;20275;-77
2021/12/06 06:08:21;;;;;;;15.30;10.93;;;4.00;99.90;;;;;;4948824;28;20312;-77
2021/12/06 06:10:50;;;;;;;12.97;9.67;;;4.00;99.90;;;;;;4943557;29;20269;-77
2021/12/06 06:13:17;;;;;;;16.87;11.83;;;4.00;99.90;;;;;;4936667;29;20229;-77
2021/12/06 06:15:43;;;;;;;15.87;12.03;;;4.00;99.90;;;;;;4937339;29;20182;-77
2021/12/06 06:18:09;;;;;;;13.43;10.73;;;4.00;99.90;;;;;;4935670;29;20221;-77
2021/12/06 06:20:53;;;;;;;14.60;10.70;;;3.90;99.90;;;;;;4935396;29;20186;-77
2021/12/06 06:23:19;;;;;;;14.90;11.10;;;3.80;99.90;;;;;;4925451;29;20192;-77
2021/12/06 06:25:45;;;;;;;12.67;9.80;;;3.80;99.90;;;;;;4919585;29;20607;-78
2021/12/06 06:28:12;;;;;;;14.80;11.10;;;3.80;99.90;;;;;;4931336;29;20209;-76
2021/12/06 06:30:38;;;;;;;13.53;11.13;;;3.90;99.90;;;;;;4947525;29;20188;-77
2021/12/06 06:33:04;;;;;;;14.33;10.83;;;3.90;99.90;;;;;;4936965;29;20178;-78
2021/12/06 06:35:30;;;;;;;18.43;13.30;;;3.90;99.90;;;;;;4940492;29;20182;-77
2021/12/06 06:37:57;;;;;;;17.57;12.40;;;4.00;99.90;;;;;;4921280;29;20341;-77
2021/12/06 06:40:23;;;;;;;18.67;13.63;;;4.00;99.90;;;;;;4941638;29;20528;-78
2021/12/06 06:42:50;;;;;;;17.17;13.57;;;3.90;99.90;;;;;;4919119;29;20174;-78
2021/12/06 06:45:18;;;;;;;17.63;12.63;;;3.80;99.90;;;;;;4935718;29;20662;-78
2021/12/06 06:47:46;;;;;;;17.87;14.23;;;3.80;99.90;;;;;;4927750;29;20265;-77
2021/12/06 06:50:12;;;;;;;18.77;14.03;;;3.90;99.90;;;;;;4914921;29;20182;-78
2021/12/06 06:52:39;;;;;;;18.67;13.43;;;3.80;99.90;;;;;;4928716;29;20201;-78
2021/12/06 06:55:06;;;;;;;15.67;12.43;;;3.80;99.90;;;;;;4936889;29;20177;-78
2021/12/06 06:57:32;;;;;;;17.43;12.40;;;3.70;99.90;;;;;;4928792;29;20203;-77
2021/12/06 06:59:58;;;;;;;19.43;13.27;;;3.70;99.90;;;;;;4920362;29;20245;-77
2021/12/06 07:02:24;;;;;;;18.17;13.50;;;3.70;99.90;;;;;;4935366;29;20676;-76
2021/12/06 07:04:50;;;;;;;17.07;12.53;;;3.60;99.90;;;;;;4928424;29;20650;-76
2021/12/06 07:07:16;;;;;;;16.70;12.33;;;3.50;99.90;;;;;;4938234;28;20198;-77
2021/12/06 07:09:43;;;;;;;16.17;12.93;;;3.40;99.90;;;;;;4933331;29;20216;-76
2021/12/06 07:12:16;;;;;;;16.23;12.53;;;3.50;99.90;;;;;;4940613;28;20192;-76
2021/12/06 07:14:43;;;;;;;17.67;12.93;;;3.50;99.90;;;;;;4936831;29;20178;-78
2021/12/06 07:17:09;;;;;;;15.40;11.73;;;3.50;99.90;;;;;;4930470;29;20333;-76
2021/12/06 07:19:35;;;;;;;18.47;13.77;;;3.40;99.90;;;;;;4941155;29;20268;-77
2021/12/06 07:22:01;;;;;;;18.37;13.10;;;3.40;99.90;;;;;;4935235;29;20321;-77
2021/12/06 07:24:27;;;;;;;20.53;13.73;;;3.40;99.90;;;;;;4935902;29;20232;-77
2021/12/06 07:26:53;;;;;;;18.77;14.57;;;3.40;99.90;;;;;;4936328;29;20204;-76
2021/12/06 07:29:20;;;;;;;19.47;13.83;;;3.50;99.90;;;;;;4937549;29;20205;-79
2021/12/06 07:31:45;;;;;;;15.73;12.30;;;3.40;99.90;;;;;;4923953;29;20190;-83
2021/12/06 07:34:11;;;;;;;17.73;11.97;;;3.40;99.90;;;;;;4890796;29;20182;-80
2021/12/06 07:36:37;;;;;;;19.70;14.00;;;3.50;99.90;;;;;;4937225;29;20189;-81
2021/12/06 07:39:03;;;;;;;18.07;12.93;;;3.50;99.90;;;;;;4906142;29;20265;-80
2021/12/06 07:41:29;;;;;;;19.00;13.17;;;3.70;99.90;;;;;;4905869;29;20635;-81
2021/12/06 07:43:57;;;;;;;19.87;13.80;;;3.70;99.90;;;;;;4937386;29;20673;-80
2021/12/06 07:46:23;;;;;;;15.33;12.20;;;3.80;99.90;;;;;;4949075;29;20186;-80
2021/12/06 07:48:52;;;;;;;17.33;12.90;;;3.80;99.90;;;;;;4931434;29;20597;-81
2021/12/06 07:51:21;;;;;;;17.77;12.50;;;3.80;99.90;;;;;;4920113;29;20248;-80
2021/12/06 07:53:47;;;;;;;18.43;13.20;;;3.80;99.90;;;;;;4903791;29;20182;-80
2021/12/06 07:56:13;;;;;;;17.93;13.47;;;3.80;99.90;;;;;;4914414;29;20555;-81
2021/12/06 07:58:39;;;;;;;16.53;12.43;;;3.90;99.90;;;;;;4916874;29;20581;-81
2021/12/06 08:01:06;;;;;;;18.23;13.67;;;3.90;99.90;;;;;;4936413;29;20265;-80
2021/12/06 08:03:33;;;;;;;17.07;12.33;;;3.90;99.90;;;;;;4923344;29;20222;-80
2021/12/06 08:05:59;;;;;;;16.03;13.53;;;3.90;99.90;;;;;;4934896;29;20194;-80
2021/12/06 08:08:28;;;;;;;13.93;11.77;;;3.90;99.90;;;;;;4924849;29;20317;-80
2021/12/06 08:11:00;;;;;;;17.47;13.40;;;3.90;99.90;;;;;;4930425;29;20201;-80
2021/12/06 08:13:30;;;;;;;16.17;12.57;;;4.00;99.90;;;;;;4932643;29;20186;-79
2021/12/06 08:15:58;;;;;;;18.90;13.37;;;4.10;99.90;;;;;;4915979;29;20193;-80
2021/12/06 08:18:24;;;;;;;21.70;15.73;;;4.00;99.90;;;;;;4935542;29;20210;-78
2021/12/06 08:20:51;;;;;;;18.03;13.27;;;4.10;99.90;;;;;;4917040;29;20197;-80
2021/12/06 08:23:17;;;;;;;20.37;14.50;;;4.20;99.90;;;;;;4923863;29;20190;-79
2021/12/06 08:25:48;;;;;;;18.70;13.20;;;4.20;99.90;;;;;;4919491;29;20621;-80
2021/12/06 08:28:16;;;;;;;18.53;14.47;;;4.30;99.90;;;;;;4930976;29;20225;-80
2021/12/06 08:30:42;;;;;;;17.57;14.07;;;4.30;99.90;;;;;;4906677;29;20194;-81
2021/12/06 08:33:08;;;;;;;20.00;15.10;;;4.20;99.90;;;;;;4915812;29;20190;-80
2021/12/06 08:35:40;;;;;;;18.17;13.47;;;4.20;99.90;;;;;;4933948;29;20248;-80
2021/12/06 08:38:07;;;;;;;18.27;13.40;;;4.20;99.90;;;;;;4917643;29;20214;-79
2021/12/06 08:40:34;;;;;;;15.70;12.50;;;4.20;99.90;;;;;;4924743;29;20201;-78
2021/12/06 08:43:00;;;;;;;14.97;12.37;;;4.20;99.90;;;;;;4924719;29;20194;-80
2021/12/06 08:45:28;;;;;;;15.67;12.60;;;4.20;99.90;;;;;;4933655;29;20192;-81
2021/12/06 08:47:54;;;;;;;17.60;13.47;;;4.30;99.90;;;;;;4929871;29;20230;-81
2021/12/06 08:50:22;;;;;;;15.53;12.97;;;4.20;99.90;;;;;;4895373;29;20996;-81
2021/12/06 08:52:49;;;;;;;18.27;13.17;;;4.20;99.90;;;;;;4914135;29;20230;-81
2021/12/06 08:55:17;;;;;;;17.60;13.77;;;4.30;99.90;;;;;;4933080;29;20670;-81
2021/12/06 08:57:43;;;;;;;17.40;14.20;;;4.40;99.90;;;;;;4930134;29;20213;-79
2021/12/06 09:00:17;;;;;;;15.33;12.53;;;4.50;99.90;;;;;;4919908;29;20190;-81
2021/12/06 09:02:42;;;;;;;24.00;14.17;;;4.50;99.90;;;;;;4928652;29;20190;-80
2021/12/06 09:05:09;;;;;;;19.77;14.50;;;4.60;99.90;;;;;;4914526;29;20197;-80
2021/12/06 09:07:36;;;;;;;16.13;13.03;;;4.60;99.90;;;;;;4919842;29;20743;-80
2021/12/06 09:10:04;;;;;;;23.43;14.90;;;4.60;99.90;;;;;;4898205;29;20241;-81
2021/12/06 09:12:31;;;;;;;25.63;16.83;;;4.60;99.90;;;;;;4915140;29;20405;-80
2021/12/06 09:15:00;;;;;;;25.30;15.73;;;4.60;99.90;;;;;;4928924;29;20662;-81
2021/12/06 09:17:27;;;;;;;25.43;14.60;;;4.70;99.90;;;;;;4940212;29;20237;-80
2021/12/06 09:19:53;;;;;;;21.03;14.60;;;4.70;99.90;;;;;;4927519;29;20194;-85
2021/12/06 09:22:21;;;;;;;18.43;13.97;;;4.70;99.90;;;;;;4924283;29;20189;-81
2021/12/06 09:24:49;;;;;;;20.80;14.57;;;4.80;99.90;;;;;;4939873;29;20186;-81
2021/12/06 09:27:15;;;;;;;18.90;14.13;;;4.90;99.90;;;;;;4912103;29;20701;-81
2021/12/06 09:29:41;;;;;;;17.47;13.83;;;4.90;99.90;;;;;;4916877;29;20281;-81
2021/12/06 09:32:09;;;;;;;19.90;14.87;;;4.90;99.90;;;;;;4931651;29;20341;-81
2021/12/06 09:34:39;;;;;;;20.20;14.97;;;4.90;99.90;;;;;;4918779;29;20819;-81
2021/12/06 09:37:05;;;;;;;18.33;14.53;;;5.00;99.90;;;;;;4935381;29;20203;-79
2021/12/06 09:39:32;;;;;;;20.10;14.87;;;5.00;99.90;;;;;;4921319;29;20221;-80
2021/12/06 09:41:58;;;;;;;27.47;16.77;;;5.10;99.90;;;;;;4929466;29;20202;-81
2021/12/06 09:44:24;;;;;;;24.77;17.40;;;5.10;99.90;;;;;;4922285;29;20194;-81
2021/12/06 09:46:51;;;;;;;40.47;23.70;;;5.10;99.90;;;;;;4924220;29;20541;-81
2021/12/06 09:49:20;;;;;;;51.17;27.87;;;5.10;99.90;;;;;;4937516;29;20317;-81
2021/12/06 09:51:51;;;;;;;50.47;27.83;;;5.20;99.90;;;;;;4920706;29;20193;-81
2021/12/06 09:54:22;;;;;;;60.60;29.77;;;5.20;99.90;;;;;;4923232;29;20190;-81
2021/12/06 09:56:50;;;;;;;68.30;32.43;;;5.30;99.90;;;;;;4925778;29;20263;-82
2021/12/06 09:59:20;;;;;;;74.47;32.43;;;5.40;99.90;;;;;;4923178;29;20272;-81
2021/12/06 10:01:57;;;;;;;70.00;33.07;;;5.40;99.90;;;;;;4932590;29;20285;-81
2021/12/06 10:04:26;;;;;;;65.97;31.47;;;5.50;99.90;;;;;;4931421;29;20316;-81
2021/12/06 10:06:55;;;;;;;58.13;31.57;;;5.60;99.90;;;;;;4906676;29;20286;-80
2021/12/06 10:09:22;;;;;;;55.67;29.37;;;5.70;99.90;;;;;;4932036;29;20683;-82
2021/12/06 10:11:49;;;;;;;54.40;28.80;;;5.70;99.90;;;;;;4927213;29;20194;-80
2021/12/06 10:14:16;;;;;;;53.03;28.00;;;5.80;99.90;;;;;;4922838;29;20182;-82
2021/12/06 10:16:42;;;;;;;47.00;27.23;;;5.70;99.90;;;;;;4947964;29;20276;-81
2021/12/06 10:19:09;;;;;;;45.80;26.50;;;5.70;99.90;;;;;;4916021;29;20720;-81
2021/12/06 10:21:37;;;;;;;45.07;26.67;;;5.60;99.90;;;;;;4941770;29;20182;-81
2021/12/06 10:24:09;;;;;;;48.17;28.27;;;5.60;99.90;;;;;;4948835;28;20280;-81
2021/12/06 10:26:35;;;;;;;52.20;28.43;;;5.70;99.90;;;;;;4941744;29;20205;-81
2021/12/06 10:29:09;;;;;;;50.53;28.10;;;5.70;99.90;;;;;;4923581;29;20209;-82
2021/12/06 10:31:40;;;;;;;51.27;28.93;;;5.60;99.90;;;;;;4939553;29;20185;-80
2021/12/06 10:34:06;;;;;;;53.73;28.43;;;5.50;99.90;;;;;;4933199;29;20653;-82
2021/12/06 10:36:34;;;;;;;57.20;29.70;;;5.50;99.90;;;;;;4942161;29;20266;-81
2021/12/06 10:39:05;;;;;;;55.47;29.80;;;5.50;99.90;;;;;;4939775;29;20576;-82
2021/12/06 10:41:34;;;;;;;52.20;28.80;;;5.50;99.90;;;;;;4940638;29;20196;-81
2021/12/06 10:44:09;;;;;;;53.90;30.13;;;5.60;99.90;;;;;;4937081;29;20554;-81
2021/12/06 10:46:37;;;;;;;54.47;31.23;;;5.50;99.90;;;;;;4945369;29;20186;-79
2021/12/06 10:49:06;;;;;;;48.77;27.97;;;5.40;99.90;;;;;;4939009;29;20205;-82
2021/12/06 10:51:33;;;;;;;45.57;26.57;;;5.40;99.90;;;;;;4914072;29;20188;-81
2021/12/06 10:54:05;;;;;;;50.97;28.93;;;5.40;99.90;;;;;;4938496;29;20298;-82
2021/12/06 10:56:47;;;;;;;47.33;26.87;;;5.30;99.90;;;;;;4950306;28;20253;-82
2021/12/06 10:59:29;;;;;;;45.73;27.43;;;5.40;99.90;;;;;;4916638;29;20217;-81
2021/12/06 11:02:04;;;;;;;48.63;27.67;;;5.40;99.90;;;;;;4920825;29;20197;-80
2021/12/06 11:04:30;;;;;;;49.23;27.10;;;5.50;99.90;;;;;;4939468;29;20203;-82
2021/12/06 11:07:05;;;;;;;47.37;26.60;;;5.50;99.90;;;;;;4935134;29;20178;-81
2021/12/06 11:09:33;;;;;;;52.60;29.10;;;5.50;99.90;;;;;;4910081;29;20224;-79
2021/12/06 11:12:01;;;;;;;49.57;27.43;;;5.60;99.90;;;;;;4944537;28;20277;-83
2021/12/06 11:14:35;;;;;;;54.20;30.43;;;5.50;99.90;;;;;;4922011;29;20194;-83
2021/12/06 11:17:05;;;;;;;56.50;30.27;;;5.60;99.90;;;;;;4929874;29;20524;-73
2021/12/06 11:19:32;;;;;;;53.77;30.77;;;5.60;99.90;;;;;;4929639;29;20190;-75
2021/12/06 11:22:19;;;;;;;55.93;30.77;;;5.70;99.90;;;;;;4926248;29;20694;-77
2021/12/06 11:24:51;;;;;;;46.97;26.57;;;5.70;99.90;;;;;;4927861;29;20284;-77
2021/12/06 11:27:37;;;;;;;47.47;28.20;;;5.70;99.90;;;;;;4932111;29;20213;-76
2021/12/06 11:30:07;;;;;;;59.20;32.50;;;5.70;99.90;;;;;;4941678;28;20210;-78
2021/12/06 11:32:46;;;;;;;56.50;32.70;;;5.80;99.90;;;;;;4930146;29;20191;-76
2021/12/06 11:35:13;;;;;;;62.73;32.67;;;5.80;99.90;;;;;;4942839;28;20200;-76
2021/12/06 11:37:42;;;;;;;62.03;33.90;;;5.70;99.90;;;;;;4928969;29;20206;-78
2021/12/06 11:40:24;;;;;;;64.73;36.10;;;5.70;99.90;;;;;;4928077;29;20201;-77
2021/12/06 11:42:56;;;;;;;60.10;34.83;;;5.70;99.90;;;;;;4931122;29;20186;-78
2021/12/06 11:45:55;;;;;;;54.80;32.63;;;5.70;99.90;;;;;;4915254;29;20193;-77
2021/12/06 11:48:27;;;;;;;50.87;31.53;;;5.70;99.90;;;;;;4941823;29;20312;-77
2021/12/06 11:51:06;;;;;;;49.37;31.50;;;5.70;99.90;;;;;;4931753;29;20182;-76
2021/12/06 11:53:50;;;;;;;46.87;30.40;;;5.60;99.90;;;;;;4932844;29;20177;-77
2021/12/06 11:56:27;;;;;;;52.33;31.53;;;5.60;99.90;;;;;;4929039;29;20208;-76
2021/12/06 11:58:59;;;;;;;47.17;29.57;;;5.60;99.90;;;;;;4930699;29;20243;-77
2021/12/06 12:01:29;;;;;;;51.57;31.97;;;5.70;99.90;;;;;;4930847;29;20196;-75
2021/12/06 12:04:02;;;;;;;55.10;32.80;;;5.70;99.90;;;;;;4931290;29;20182;-75
2021/12/06 12:06:31;;;;;;;49.37;32.07;;;5.70;99.90;;;;;;4925110;29;20194;-75
2021/12/06 12:09:17;;;;;;;50.20;31.30;;;5.80;99.90;;;;;;4929383;29;20697;-75
2021/12/06 12:12:19;;;;;;;48.87;31.70;;;5.90;99.90;;;;;;4933309;29;20184;-75
2021/12/06 12:14:54;;;;;;;43.17;28.10;;;5.90;99.90;;;;;;4931280;29;20181;-75
2021/12/06 12:17:30;;;;;;;44.77;28.40;;;5.90;99.90;;;;;;4929080;29;20261;-75
2021/12/06 12:19:58;;;;;;;40.53;27.33;;;5.90;99.90;;;;;;4931535;29;20277;-75
2021/12/06 12:22:26;;;;;;;41.40;26.87;;;5.90;99.90;;;;;;4923248;29;20192;-75
2021/12/06 12:24:57;;;;;;;39.40;26.93;;;5.80;99.90;;;;;;4930373;29;20186;-74
2021/12/06 12:29:53;;;;;;;41.20;27.87;;;5.90;99.90;;;;;;4930295;29;20220;-76
2021/12/06 12:32:19;;;;;;;33.73;24.20;;;5.90;99.90;;;;;;4932759;29;20178;-77
2021/12/06 12:34:48;;;;;;;33.93;23.40;;;6.00;99.90;;;;;;4915358;29;20274;-76
2021/12/06 12:37:18;;;;;;;32.30;22.27;;;6.00;99.90;;;;;;4914734;29;20201;-76
2021/12/06 12:39:57;;;;;;;32.93;23.63;;;6.10;99.90;;;;;;4929786;29;20686;-76
2021/12/06 12:42:24;;;;;;;31.47;23.00;;;6.10;99.90;;;;;;4930296;29;20204;-76
2021/12/06 12:44:56;;;;;;;29.57;21.20;;;6.30;99.90;;;;;;4931619;29;20266;-76
2021/12/06 12:47:24;;;;;;;30.17;20.70;;;6.30;99.90;;;;;;4931216;29;20697;-78
2021/12/06 12:49:53;;;;;;;26.93;19.97;;;6.50;99.90;;;;;;4918030;29;20214;-79
2021/12/06 12:52:36;;;;;;;26.57;19.63;;;6.60;99.90;;;;;;4918348;29;20186;-77
2021/12/06 12:55:19;;;;;;;26.60;20.03;;;6.70;99.90;;;;;;4927618;29;20205;-77
2021/12/06 12:57:45;;;;;;;25.30;17.93;;;6.80;99.90;;;;;;4933412;29;20712;-76
2021/12/06 13:00:21;;;;;;;25.77;19.57;;;6.70;99.90;;;;;;4925282;29;20194;-76